createdAt,value
2019-04-03T00:00:31.244Z,66.25
2019-04-03T00:05:36.379Z,66.53
2019-04-03T00:10:41.656Z,66.74
2019-04-03T00:15:46.694Z,67.22
2019-04-03T00:20:51.785Z,67.29
2019-04-03T00:25:57.126Z,67.63
2019-04-03T00:31:02.116Z,67.88
2019-04-03T00:36:07.432Z,68.15
2019-04-03T00:41:12.430Z,68.13
2019-04-03T00:46:18.652Z,67.90
2019-04-03T00:51:23.644Z,67.53
2019-04-03T00:56:29.740Z,67.69
2019-04-03T01:01:34.873Z,67.55
2019-04-03T01:06:42.894Z,67.40
2019-04-03T01:11:48.004Z,67.48
2019-04-03T01:16:52.959Z,67.61
2019-04-03T01:21:57.948Z,68.29
2019-04-03T01:27:02.887Z,69.04
2019-04-03T01:32:09.244Z,69.13
2019-04-03T01:37:14.265Z,69.66
2019-04-03T01:42:21.493Z,70.21
2019-04-03T01:47:27.771Z,70.18
2019-04-03T01:52:34.114Z,70.68
2019-04-03T01:57:39.116Z,71.25
2019-04-03T02:02:44.099Z,71.20
2019-04-03T02:07:49.016Z,71.72
2019-04-03T02:12:58.229Z,72.04
2019-04-03T02:18:03.464Z,72.26
2019-04-03T02:23:08.436Z,72.29
2019-04-03T02:28:13.405Z,72.45
2019-04-03T02:33:28.615Z,72.64
2019-04-03T02:38:35.947Z,72.74
2019-04-03T02:43:41.151Z,73.11
2019-04-03T02:48:46.174Z,73.56
2019-04-03T02:53:51.342Z,73.92
2019-04-03T02:58:56.441Z,74.14
2019-04-03T03:04:02.020Z,74.00
2019-04-03T03:09:07.151Z,74.13
2019-04-03T03:14:13.186Z,73.81
2019-04-03T03:19:18.659Z,74.32
2019-04-03T03:24:23.638Z,74.24
2019-04-03T03:29:31.712Z,74.53
2019-04-03T03:34:54.106Z,74.74
2019-04-03T03:39:47.480Z,74.78
2019-04-03T03:44:58.774Z,75.10
2019-04-03T03:50:05.700Z,75.47
2019-04-03T03:55:12.456Z,75.46
2019-04-03T04:00:22.391Z,75.86
2019-04-03T04:05:28.392Z,76.26
2019-04-03T04:10:38.061Z,76.75
2019-04-03T04:15:43.898Z,77.00
2019-04-03T04:20:49.088Z,77.51
2019-04-03T04:25:54.534Z,77.63
2019-04-03T04:31:00.224Z,77.79
2019-04-03T04:36:05.250Z,77.70
2019-04-03T04:41:10.672Z,77.36
2019-04-03T04:46:15.680Z,77.33
2019-04-03T04:51:21.725Z,77.21
2019-04-03T04:56:27.176Z,77.35
2019-04-03T05:01:32.318Z,77.53
2019-04-03T05:06:37.513Z,77.50
2019-04-03T05:11:42.497Z,76.82
2019-04-03T05:16:47.454Z,77.36
2019-04-03T05:21:53.111Z,77.31
2019-04-03T05:26:58.572Z,77.01
2019-04-03T05:32:03.570Z,76.98
2019-04-03T05:37:11.409Z,76.97
2019-04-03T05:42:15.757Z,76.96
2019-04-03T05:47:20.723Z,75.71
2019-04-03T05:52:26.187Z,74.90
2019-04-03T05:57:33.057Z,74.16
2019-04-03T06:02:40.909Z,72.72
2019-04-03T06:07:47.034Z,72.71
2019-04-03T06:12:53.645Z,71.78
2019-04-03T06:18:01.102Z,71.86
2019-04-03T06:23:06.359Z,71.12
2019-04-03T06:28:13.330Z,70.45
2019-04-03T06:33:18.308Z,69.52
2019-04-03T06:38:24.523Z,67.74
2019-04-03T06:43:30.790Z,67.58
2019-04-03T06:48:36.512Z,67.04
2019-04-03T06:53:43.138Z,66.10
2019-04-03T06:58:48.193Z,65.96
2019-04-03T07:03:53.166Z,65.67
2019-04-03T07:08:58.249Z,64.99
2019-04-03T07:14:03.733Z,65.03
2019-04-03T07:19:09.057Z,65.76
2019-04-03T07:24:14.405Z,65.86
2019-04-03T07:29:19.649Z,65.44
2019-04-03T07:34:24.677Z,65.93
2019-04-03T07:39:29.742Z,65.46
2019-04-03T07:44:35.005Z,65.44
2019-04-03T07:49:40.491Z,64.60
2019-04-03T07:54:45.878Z,64.63
2019-04-03T07:59:50.901Z,65.13
2019-04-03T08:04:59.463Z,64.35
2019-04-03T08:10:02.651Z,63.88
2019-04-03T08:15:09.245Z,63.29
2019-04-03T08:20:14.856Z,62.61
2019-04-03T08:25:20.222Z,60.95
2019-04-03T08:30:25.368Z,60.81
2019-04-03T08:35:30.873Z,59.81
2019-04-03T08:40:37.979Z,58.81
2019-04-03T08:45:43.108Z,57.47
2019-04-03T08:50:54.235Z,58.05
2019-04-03T08:56:02.534Z,58.29
2019-04-03T09:01:10.432Z,58.37
2019-04-03T09:06:14.716Z,57.66
2019-04-03T09:11:19.875Z,56.92
2019-04-03T09:16:24.910Z,57.18
2019-04-03T09:21:30.055Z,55.51
2019-04-03T09:26:38.113Z,54.42
2019-04-03T09:31:43.358Z,55.01
2019-04-03T09:36:48.342Z,55.23
2019-04-03T09:41:53.425Z,55.13
2019-04-03T09:46:58.440Z,55.20
2019-04-03T09:52:03.700Z,54.21
2019-04-03T09:57:08.679Z,53.19
2019-04-03T10:02:13.752Z,52.53
2019-04-03T10:07:18.809Z,52.75
2019-04-03T10:12:23.898Z,52.83
2019-04-03T10:17:29.236Z,53.60
2019-04-03T10:22:34.315Z,54.78
2019-04-03T10:27:42.544Z,56.91
2019-04-03T10:32:46.049Z,55.58
2019-04-03T10:37:52.055Z,53.47
2019-04-03T10:42:59.855Z,52.69
2019-04-03T10:48:04.350Z,52.31
2019-04-03T10:53:09.345Z,52.19
2019-04-03T10:58:15.226Z,52.62
2019-04-03T11:03:20.691Z,52.35
2019-04-03T11:08:25.959Z,53.27
2019-04-03T11:13:32.249Z,53.56
2019-04-03T11:18:38.485Z,52.85
2019-04-03T11:23:45.580Z,52.73
2019-04-03T11:28:51.487Z,52.14
2019-04-03T11:33:58.427Z,52.56
2019-04-03T11:39:12.336Z,53.34
2019-04-03T11:44:12.007Z,53.71
2019-04-03T11:49:19.361Z,53.59
2019-04-03T11:54:24.425Z,53.77
2019-04-03T11:59:29.479Z,55.09
2019-04-03T12:04:34.873Z,54.51
2019-04-03T12:09:40.065Z,54.59
2019-04-03T12:14:48.450Z,52.54
2019-04-03T12:19:54.555Z,47.65
2019-04-03T12:25:00.003Z,43.15
2019-04-03T12:30:06.668Z,41.16
2019-04-03T12:35:11.796Z,38.61
2019-04-03T12:40:17.225Z,41.96
2019-04-03T12:45:22.724Z,44.87
2019-04-03T12:50:29.035Z,44.19
2019-04-03T12:55:34.159Z,40.57
2019-04-03T13:00:46.170Z,38.12
2019-04-03T13:05:51.716Z,37.15
2019-04-03T13:10:57.190Z,36.81
2019-04-03T13:16:02.773Z,39.11
2019-04-03T13:21:09.232Z,37.62
2019-04-03T13:26:14.405Z,37.70
2019-04-03T13:31:19.887Z,36.89
2019-04-03T13:36:25.179Z,37.65
2019-04-03T13:41:33.288Z,39.55
2019-04-03T13:46:37.526Z,38.84
2019-04-03T13:51:42.649Z,39.19
2019-04-03T13:56:47.883Z,38.16
2019-04-03T14:01:53.050Z,37.93
2019-04-03T14:06:58.501Z,37.40
2019-04-03T14:12:05.211Z,37.87
2019-04-03T14:17:13.639Z,38.74
2019-04-03T14:22:18.143Z,39.40
2019-04-03T14:27:28.466Z,37.97
2019-04-03T14:32:31.177Z,38.18
2019-04-03T14:37:36.428Z,39.31
2019-04-03T14:42:41.561Z,40.24
2019-04-03T14:47:46.733Z,42.28
2019-04-03T14:52:52.517Z,44.06
2019-04-03T14:57:57.768Z,45.38
2019-04-03T15:03:04.736Z,47.11
2019-04-03T15:08:09.697Z,48.90
2019-04-03T15:13:16.935Z,48.84
2019-04-03T15:18:45.607Z,50.42
2019-04-03T15:23:48.964Z,50.71
2019-04-03T15:28:54.694Z,50.87
2019-04-03T15:34:00.476Z,50.78
2019-04-03T15:39:12.552Z,51.49
2019-04-03T15:44:20.045Z,50.86
2019-04-03T15:49:26.604Z,51.45
2019-04-03T15:54:33.030Z,50.41
2019-04-03T15:59:38.730Z,49.98
2019-04-03T16:04:44.116Z,50.99
2019-04-03T16:09:51.283Z,51.80
2019-04-03T16:14:57.449Z,51.88
2019-04-03T16:20:03.068Z,51.93
2019-04-03T16:25:09.747Z,52.14
2019-04-03T16:30:24.316Z,51.58
2019-04-03T16:35:31.149Z,51.23
2019-04-03T16:40:39.021Z,51.71
2019-04-03T16:45:44.597Z,51.88
2019-04-03T16:50:50.009Z,51.67
2019-04-03T16:55:57.985Z,51.90
2019-04-03T17:01:03.154Z,51.56
2019-04-03T17:06:08.235Z,51.32
2019-04-03T17:11:14.818Z,50.77
2019-04-03T17:16:20.027Z,50.66
2019-04-03T17:21:25.643Z,50.55
2019-04-03T17:26:32.061Z,51.25
2019-04-03T17:31:42.290Z,51.79
2019-04-03T17:36:47.331Z,52.23
2019-04-03T17:41:56.573Z,52.06
2019-04-03T17:47:01.702Z,53.20
2019-04-03T17:52:06.933Z,53.34
2019-04-03T17:57:13.703Z,53.29
2019-04-03T18:02:24.601Z,53.33
2019-04-03T18:07:30.889Z,53.65
2019-04-03T18:12:35.965Z,53.98
2019-04-03T18:17:41.011Z,54.19
2019-04-03T18:22:46.023Z,54.39
2019-04-03T18:27:51.129Z,54.52
2019-04-03T18:32:58.048Z,54.80
2019-04-03T18:38:03.300Z,54.78
2019-04-03T18:43:08.451Z,55.18
2019-04-03T18:48:16.247Z,55.38
2019-04-03T18:53:21.109Z,55.66
2019-04-03T18:58:26.247Z,55.90
2019-04-03T19:03:31.519Z,56.30
2019-04-03T19:08:36.654Z,56.64
2019-04-03T19:13:44.497Z,56.86
2019-04-03T19:18:49.229Z,56.92
2019-04-03T19:23:54.467Z,57.24
2019-04-03T19:28:59.549Z,57.48
2019-04-03T19:34:05.709Z,57.31
2019-04-03T19:39:11.014Z,56.87
2019-04-03T19:44:18.069Z,56.45
2019-04-03T19:49:23.405Z,56.72
2019-04-03T19:54:28.509Z,56.13
2019-04-03T19:59:35.097Z,56.13
2019-04-03T20:04:40.559Z,56.17
2019-04-03T20:09:45.589Z,56.40
2019-04-03T20:14:57.957Z,55.75
2019-04-03T20:19:58.858Z,56.00
2019-04-03T20:25:03.849Z,55.46
2019-04-03T20:30:09.268Z,54.78
2019-04-03T20:35:14.351Z,54.03
2019-04-03T20:40:19.538Z,53.91
2019-04-03T20:45:26.385Z,53.66
2019-04-03T20:50:31.432Z,53.92
2019-04-03T20:55:36.553Z,54.07
2019-04-03T21:00:41.797Z,54.01
2019-04-03T21:05:48.857Z,53.90
2019-04-03T21:10:54.055Z,53.70
2019-04-03T21:15:59.199Z,53.71
2019-04-03T21:21:04.347Z,53.61
2019-04-03T21:26:09.385Z,53.82
2019-04-03T21:31:14.448Z,53.98
2019-04-03T21:36:19.560Z,54.00
2019-04-03T21:41:24.671Z,53.77
2019-04-03T21:46:29.704Z,54.00
2019-04-03T21:51:35.053Z,55.12
2019-04-03T21:56:40.075Z,54.95
2019-04-03T22:01:46.153Z,54.51
2019-04-03T22:06:51.261Z,54.27
2019-04-03T22:11:56.364Z,54.39
2019-04-03T22:17:01.391Z,54.25
2019-04-03T22:22:06.469Z,54.45
2019-04-03T22:27:12.522Z,54.83
2019-04-03T22:32:17.675Z,54.63
2019-04-03T22:37:22.867Z,54.41
2019-04-03T22:42:28.222Z,54.62
2019-04-03T22:47:33.228Z,55.18
2019-04-03T22:52:39.922Z,55.47
2019-04-03T22:57:45.320Z,56.14
2019-04-03T23:02:50.426Z,56.33
2019-04-03T23:07:55.405Z,56.51
2019-04-03T23:13:00.738Z,57.08
2019-04-03T23:18:05.764Z,57.81
2019-04-03T23:23:10.873Z,58.55
2019-04-03T23:28:15.864Z,58.76
2019-04-03T23:33:21.054Z,59.03
2019-04-03T23:38:26.726Z,59.37
2019-04-03T23:43:32.225Z,59.78
2019-04-03T23:48:37.232Z,59.78
2019-04-03T23:53:42.275Z,60.18
2019-04-03T23:58:47.328Z,60.25
